createdAt,value
2023-06-23T00:02:21.350Z,19.35
2023-06-23T00:04:48.470Z,20.58
2023-06-23T00:07:16.249Z,19.20
2023-06-23T00:09:44.977Z,21.08
2023-06-23T00:12:12.230Z,17.50
2023-06-23T00:14:39.414Z,23.48
2023-06-23T00:17:08.484Z,17.05
2023-06-23T00:19:35.783Z,20.00
2023-06-23T00:22:04.341Z,21.90
2023-06-23T00:24:33.625Z,19.98
2023-06-23T00:27:04.345Z,19.08
2023-06-23T00:29:31.505Z,18.77
2023-06-23T00:31:58.683Z,19.95
2023-06-23T00:34:25.782Z,19.40
2023-06-23T00:36:53.048Z,22.45
2023-06-23T00:39:20.324Z,21.65
2023-06-23T00:41:47.555Z,22.70
2023-06-23T00:44:14.823Z,20.80
2023-06-23T00:46:44.963Z,21.52
2023-06-23T00:49:16.446Z,22.75
2023-06-23T00:51:43.994Z,19.10
2023-06-23T00:54:11.187Z,22.85
2023-06-23T00:56:38.424Z,24.05
2023-06-23T00:59:06.744Z,21.10
2023-06-23T01:01:34.045Z,20.95
2023-06-23T01:04:01.704Z,20.95
2023-06-23T01:06:40.358Z,23.05
2023-06-23T01:09:40.880Z,19.15
2023-06-23T01:12:08.057Z,23.40
2023-06-23T01:14:56.335Z,24.10
2023-06-23T01:17:30.688Z,23.95
2023-06-23T01:20:30.537Z,21.65
2023-06-23T01:23:25.498Z,27.83
2023-06-23T01:26:06.643Z,23.33
2023-06-23T01:28:59.550Z,17.08
2023-06-23T01:31:57.707Z,21.77
2023-06-23T01:34:36.120Z,25.80
2023-06-23T01:37:09.590Z,24.50
2023-06-23T01:39:40.227Z,26.90
2023-06-23T01:42:14.773Z,21.33
2023-06-23T01:44:47.008Z,17.13
2023-06-23T01:47:20.390Z,23.55
2023-06-23T01:49:50.123Z,27.13
2023-06-23T01:52:18.567Z,23.02
2023-06-23T01:54:48.831Z,22.90
2023-06-23T01:57:17.261Z,23.92
2023-06-23T01:59:46.127Z,23.65
2023-06-23T02:02:16.451Z,20.15
2023-06-23T02:04:47.186Z,25.65
2023-06-23T02:07:17.729Z,18.45
2023-06-23T02:09:46.518Z,23.75
2023-06-23T02:12:15.642Z,20.05
2023-06-23T02:14:45.327Z,18.52
2023-06-23T02:17:14.216Z,21.02
2023-06-23T02:19:44.630Z,20.42
2023-06-23T02:22:15.431Z,19.60
2023-06-23T02:24:43.467Z,22.23
2023-06-23T02:27:11.186Z,25.58
2023-06-23T02:29:41.435Z,26.08
2023-06-23T02:32:09.684Z,23.85
2023-06-23T02:34:36.952Z,19.40
2023-06-23T02:37:07.425Z,18.23
2023-06-23T02:39:41.163Z,24.73
2023-06-23T02:42:11.090Z,24.90
2023-06-23T02:44:42.676Z,18.88
2023-06-23T02:47:16.447Z,19.33
2023-06-23T02:49:46.634Z,20.33
2023-06-23T02:52:16.635Z,24.80
2023-06-23T02:54:49.257Z,19.63
2023-06-23T02:57:19.434Z,20.27
2023-06-23T02:59:48.132Z,19.17
2023-06-23T03:02:23.871Z,28.45
2023-06-23T03:04:52.077Z,16.77
2023-06-23T03:07:19.603Z,20.17
2023-06-23T03:09:46.733Z,20.90
2023-06-23T03:12:14.200Z,20.45
2023-06-23T03:14:41.565Z,21.48
2023-06-23T03:17:15.718Z,22.90
2023-06-23T03:19:55.007Z,21.95
2023-06-23T03:22:29.932Z,19.73
2023-06-23T03:25:04.122Z,17.98
2023-06-23T03:27:34.316Z,20.75
2023-06-23T03:30:04.936Z,17.23
2023-06-23T03:32:37.514Z,24.88
2023-06-23T03:35:14.498Z,22.02
2023-06-23T03:37:49.784Z,23.02
2023-06-23T03:40:21.031Z,23.92
2023-06-23T03:43:06.704Z,20.15
2023-06-23T03:45:35.919Z,23.38
2023-06-23T03:48:07.482Z,21.33
2023-06-23T03:50:37.402Z,21.05
2023-06-23T03:53:06.274Z,18.50
2023-06-23T03:55:34.963Z,19.27
2023-06-23T03:58:06.459Z,25.15
2023-06-23T04:00:39.054Z,22.73
2023-06-23T04:03:09.068Z,15.65
2023-06-23T04:05:39.392Z,17.10
2023-06-23T04:08:07.900Z,19.88
2023-06-23T04:10:36.938Z,25.13
2023-06-23T04:13:06.435Z,23.85
2023-06-23T04:15:37.587Z,20.70
2023-06-23T04:18:08.334Z,22.55
2023-06-23T04:20:39.686Z,19.83
2023-06-23T04:23:07.497Z,25.20
2023-06-23T04:25:34.857Z,21.30
2023-06-23T04:28:06.134Z,22.67
2023-06-23T04:30:35.771Z,20.88
2023-06-23T04:33:03.343Z,19.92
2023-06-23T04:35:31.247Z,21.73
2023-06-23T04:38:07.981Z,18.42
2023-06-23T04:40:47.070Z,22.00
2023-06-23T04:43:28.315Z,19.58
2023-06-23T04:45:58.383Z,26.77
2023-06-23T04:48:29.497Z,24.88
2023-06-23T04:50:59.662Z,24.42
2023-06-23T04:53:35.489Z,22.65
2023-06-23T04:56:07.147Z,23.67
2023-06-23T04:58:38.294Z,23.40
2023-06-23T05:01:10.193Z,26.13
2023-06-23T05:03:39.995Z,23.98
2023-06-23T05:06:09.739Z,25.02
2023-06-23T05:08:37.650Z,23.55
2023-06-23T05:11:07.753Z,19.73
2023-06-23T05:13:37.845Z,22.83
2023-06-23T05:16:11.877Z,22.17
2023-06-23T05:18:41.943Z,23.27
2023-06-23T05:21:09.584Z,20.17
2023-06-23T05:26:15.664Z,18.10
2023-06-23T05:28:44.811Z,19.13
2023-06-23T05:31:14.797Z,27.15
2023-06-23T05:33:45.470Z,20.50
2023-06-23T05:36:14.631Z,21.52
2023-06-23T05:38:44.824Z,34.25
2023-06-23T05:41:12.169Z,25.38
2023-06-23T05:43:40.244Z,30.77
2023-06-23T05:46:12.230Z,24.02
2023-06-23T05:48:54.136Z,26.33
2023-06-23T05:54:02.341Z,20.45
2023-06-23T05:56:33.796Z,20.65
2023-06-23T05:59:06.867Z,22.60
2023-06-23T06:01:40.571Z,18.73
2023-06-23T06:04:17.618Z,21.55
2023-06-23T06:06:47.401Z,17.50
2023-06-23T06:09:16.974Z,18.50
2023-06-23T06:11:46.123Z,27.20
2023-06-23T06:14:16.794Z,19.25
2023-06-23T06:16:45.372Z,19.40
2023-06-23T06:19:14.672Z,16.77
2023-06-23T06:21:44.657Z,24.73
2023-06-23T06:24:15.631Z,23.10
2023-06-23T06:26:44.791Z,18.27
2023-06-23T06:29:15.486Z,19.80
2023-06-23T06:31:46.385Z,23.23
2023-06-23T06:34:17.415Z,19.80
2023-06-23T06:36:46.058Z,31.42
2023-06-23T06:39:15.214Z,17.52
2023-06-23T06:41:43.563Z,17.20
2023-06-23T06:44:10.847Z,19.98
2023-06-23T06:46:40.658Z,28.92
2023-06-23T06:49:09.829Z,21.13
2023-06-23T06:51:38.522Z,21.02
2023-06-23T06:54:05.770Z,22.98
2023-06-23T06:56:34.232Z,20.33
2023-06-23T06:59:01.610Z,19.52
2023-06-23T07:01:30.191Z,30.63
2023-06-23T07:03:58.176Z,24.73
2023-06-23T07:06:27.315Z,26.67
2023-06-23T07:08:54.483Z,16.50
2023-06-23T07:11:21.820Z,20.77
2023-06-23T07:13:48.986Z,19.88
2023-06-23T07:16:16.272Z,22.98
2023-06-23T07:18:43.366Z,25.10
2023-06-23T07:21:11.911Z,19.88
2023-06-23T07:23:39.444Z,21.10
2023-06-23T07:26:06.909Z,25.10
2023-06-23T07:28:34.118Z,22.73
2023-06-23T07:31:01.579Z,20.65
2023-06-23T07:33:29.037Z,20.08
2023-06-23T07:35:56.159Z,25.30
2023-06-23T07:38:23.451Z,20.95
2023-06-23T07:40:50.720Z,27.38
2023-06-23T07:43:18.016Z,28.75
2023-06-23T07:45:45.291Z,29.20
2023-06-23T07:48:12.484Z,26.17
2023-06-23T07:50:39.796Z,21.30
2023-06-23T07:53:07.023Z,32.90
2023-06-23T07:55:34.277Z,23.02
2023-06-23T07:58:01.579Z,19.08
2023-06-23T08:00:29.108Z,17.73
2023-06-23T08:02:56.403Z,21.48
2023-06-23T08:05:24.907Z,21.15
2023-06-23T08:07:52.167Z,18.17
2023-06-23T08:10:19.383Z,23.98
2023-06-23T08:12:46.568Z,20.17
2023-06-23T08:15:14.316Z,24.50
2023-06-23T08:17:41.984Z,19.80
2023-06-23T08:20:10.394Z,26.80
2023-06-23T08:22:41.201Z,24.42
2023-06-23T08:25:09.491Z,23.17
2023-06-23T08:27:36.815Z,26.20
2023-06-23T08:30:04.749Z,25.83
2023-06-23T08:32:32.053Z,19.70
2023-06-23T08:34:59.722Z,21.95
2023-06-23T08:37:26.942Z,23.17
2023-06-23T08:39:54.108Z,19.65
2023-06-23T08:42:22.940Z,20.30
2023-06-23T08:44:52.683Z,21.25
2023-06-23T08:47:21.250Z,25.23
2023-06-23T08:49:51.192Z,23.90
2023-06-23T08:52:18.951Z,28.13
2023-06-23T08:54:46.373Z,24.50
2023-06-23T08:57:14.395Z,21.38
2023-06-23T08:59:41.992Z,30.10
2023-06-23T09:02:09.163Z,21.35
2023-06-23T09:04:36.496Z,17.50
2023-06-23T09:07:03.720Z,24.70
2023-06-23T09:09:32.824Z,25.02
2023-06-23T09:12:01.534Z,27.27
2023-06-23T09:14:31.942Z,18.83
2023-06-23T09:16:59.886Z,24.60
2023-06-23T09:19:29.250Z,25.48
2023-06-23T09:21:57.165Z,23.67
2023-06-23T09:24:24.543Z,25.50
2023-06-23T09:26:58.405Z,29.23
2023-06-23T09:29:29.509Z,25.80
2023-06-23T09:31:57.099Z,25.08
2023-06-23T09:34:39.021Z,20.88
2023-06-23T09:37:11.191Z,33.78
2023-06-23T09:39:40.458Z,27.58
2023-06-23T09:42:14.307Z,24.10
2023-06-23T09:44:43.938Z,22.73
2023-06-23T09:47:11.179Z,21.55
2023-06-23T09:49:43.376Z,21.73
2023-06-23T09:52:15.848Z,29.70
2023-06-23T09:54:43.328Z,19.63
2023-06-23T09:57:14.841Z,24.05
2023-06-23T09:59:44.085Z,25.55
2023-06-23T10:02:21.858Z,24.17
2023-06-23T10:04:58.911Z,28.52
2023-06-23T10:07:27.669Z,24.33
2023-06-23T10:10:08.201Z,26.17
2023-06-23T10:12:44.249Z,23.85
2023-06-23T10:15:12.106Z,29.88
2023-06-23T10:17:40.247Z,25.80
2023-06-23T10:20:08.420Z,21.88
2023-06-23T10:22:37.798Z,25.25
2023-06-23T10:25:11.666Z,26.77
2023-06-23T10:27:41.817Z,29.55
2023-06-23T10:30:12.139Z,21.20
2023-06-23T10:32:41.792Z,21.57
2023-06-23T10:35:11.987Z,21.80
2023-06-23T10:37:45.326Z,23.25
2023-06-23T10:40:19.955Z,20.92
2023-06-23T10:42:50.443Z,24.75
2023-06-23T10:45:18.063Z,24.58
2023-06-23T10:47:46.970Z,25.77
2023-06-23T10:50:15.839Z,22.27
2023-06-23T10:52:45.981Z,29.08
2023-06-23T10:55:45.838Z,27.58
2023-06-23T10:58:20.105Z,25.63
2023-06-23T11:00:56.612Z,23.58
2023-06-23T11:03:33.833Z,24.92
2023-06-23T11:06:11.733Z,22.95
2023-06-23T11:08:41.453Z,37.20
2023-06-23T11:11:16.773Z,24.48
2023-06-23T11:13:49.787Z,31.88
2023-06-23T11:16:32.147Z,32.88
2023-06-23T11:19:01.826Z,22.88
2023-06-23T11:22:08.900Z,20.90
2023-06-23T11:24:36.125Z,32.20
2023-06-23T11:27:04.097Z,26.48
2023-06-23T11:29:33.401Z,25.58
2023-06-23T11:32:15.777Z,30.65
2023-06-23T11:35:10.523Z,26.85
2023-06-23T11:37:40.262Z,24.45
2023-06-23T11:40:10.444Z,26.10
2023-06-23T11:42:38.051Z,34.10
2023-06-23T11:45:05.949Z,21.52
2023-06-23T11:47:34.653Z,30.77
2023-06-23T11:50:08.094Z,31.67
2023-06-23T11:52:35.816Z,32.05
2023-06-23T11:55:05.362Z,28.58
2023-06-23T11:57:33.679Z,25.70
2023-06-23T12:00:01.259Z,27.92
2023-06-23T12:02:28.627Z,27.45
2023-06-23T12:05:01.276Z,21.83
2023-06-23T12:07:31.573Z,20.88
2023-06-23T12:09:58.891Z,21.75
2023-06-23T12:12:26.263Z,25.80
2023-06-23T12:15:00.756Z,25.38
2023-06-23T12:17:28.106Z,26.73
2023-06-23T12:19:56.036Z,29.10
2023-06-23T12:22:23.482Z,25.05
2023-06-23T12:24:51.013Z,20.23
2023-06-23T12:27:19.396Z,27.00
2023-06-23T12:29:46.666Z,29.00
2023-06-23T12:32:13.957Z,33.13
2023-06-23T12:34:50.464Z,22.92
2023-06-23T12:37:19.708Z,28.70
2023-06-23T12:39:55.608Z,28.08
2023-06-23T12:42:23.945Z,22.95
2023-06-23T12:44:52.283Z,19.90
2023-06-23T12:47:20.448Z,22.38
2023-06-23T12:49:49.433Z,28.95
2023-06-23T12:52:16.859Z,22.00
2023-06-23T12:54:44.635Z,22.50
2023-06-23T12:57:12.375Z,30.88
2023-06-23T12:59:39.614Z,31.08
2023-06-23T13:02:07.673Z,25.05
2023-06-23T13:04:35.000Z,22.92
2023-06-23T13:07:02.359Z,24.52
2023-06-23T13:09:30.224Z,24.13
2023-06-23T13:11:57.371Z,21.02
2023-06-23T13:14:24.748Z,28.27
2023-06-23T13:16:52.061Z,28.75
2023-06-23T13:19:19.224Z,17.17
2023-06-23T13:21:48.518Z,20.70
2023-06-23T13:24:15.920Z,24.75
2023-06-23T13:26:48.601Z,22.75
2023-06-23T13:29:17.396Z,25.23
2023-06-23T13:31:45.445Z,24.83
2023-06-23T13:34:12.726Z,17.55
2023-06-23T13:36:39.918Z,18.70
2023-06-23T13:39:07.133Z,20.63
2023-06-23T13:41:34.334Z,17.88
2023-06-23T13:44:01.567Z,15.65
2023-06-23T13:46:28.905Z,22.77
2023-06-23T13:48:56.139Z,24.33
2023-06-23T13:51:23.353Z,18.40
2023-06-23T13:53:50.609Z,20.95
2023-06-23T13:56:18.293Z,19.83
2023-06-23T13:58:45.590Z,24.58
2023-06-23T14:01:12.825Z,23.42
2023-06-23T14:03:39.960Z,24.42
2023-06-23T14:06:07.406Z,19.67
2023-06-23T14:08:36.847Z,24.15
2023-06-23T14:11:04.154Z,22.77
2023-06-23T14:13:31.663Z,23.88
2023-06-23T14:15:59.145Z,17.48
2023-06-23T14:18:26.467Z,19.70
2023-06-23T14:20:53.652Z,20.33
2023-06-23T14:23:21.037Z,15.10
2023-06-23T14:25:48.326Z,30.52
2023-06-23T14:28:16.101Z,17.02
2023-06-23T14:30:43.720Z,20.77
2023-06-23T14:33:11.879Z,17.73
2023-06-23T14:35:39.194Z,20.33
2023-06-23T14:38:07.148Z,21.45
2023-06-23T14:40:34.722Z,20.17
2023-06-23T14:43:03.948Z,17.13
2023-06-23T14:45:41.578Z,24.33
2023-06-23T14:48:09.129Z,27.30
2023-06-23T14:50:37.176Z,21.52
2023-06-23T14:53:04.568Z,23.88
2023-06-23T14:55:34.816Z,28.67
2023-06-23T14:58:04.539Z,24.85
2023-06-23T15:00:32.026Z,28.00
2023-06-23T15:02:59.506Z,30.92
2023-06-23T15:05:27.011Z,29.35
2023-06-23T15:07:57.193Z,36.03
2023-06-23T15:10:24.413Z,31.90
2023-06-23T15:12:52.106Z,24.10
2023-06-23T15:15:19.369Z,29.50
2023-06-23T15:17:46.730Z,19.60
2023-06-23T15:20:15.914Z,28.83
2023-06-23T15:22:45.730Z,21.02
2023-06-23T15:25:13.195Z,30.45
2023-06-23T15:27:40.993Z,25.60
2023-06-23T15:30:10.331Z,28.48
2023-06-23T15:32:37.558Z,34.08
2023-06-23T15:35:05.214Z,31.88
2023-06-23T15:37:32.699Z,35.50
2023-06-23T15:40:00.131Z,28.48
2023-06-23T15:42:27.741Z,33.45
2023-06-23T15:44:54.861Z,32.50
2023-06-23T15:47:22.762Z,32.90
2023-06-23T15:49:50.899Z,30.55
2023-06-23T15:52:18.797Z,27.98
2023-06-23T15:54:46.147Z,23.00
2023-06-23T15:57:13.377Z,29.50
2023-06-23T15:59:40.764Z,24.95
2023-06-23T16:02:09.302Z,29.48
2023-06-23T16:04:36.823Z,21.63
2023-06-23T16:07:08.091Z,31.10
2023-06-23T16:09:35.390Z,35.13
2023-06-23T16:12:03.112Z,33.65
2023-06-23T16:14:30.487Z,32.53
2023-06-23T16:16:59.800Z,24.63
2023-06-23T16:19:26.934Z,28.60
2023-06-23T16:21:54.051Z,31.55
2023-06-23T16:24:21.267Z,32.28
2023-06-23T16:26:48.486Z,23.45
2023-06-23T16:29:15.693Z,29.67
2023-06-23T16:31:43.030Z,18.30
2023-06-23T16:34:10.212Z,26.88
2023-06-23T16:36:37.419Z,27.60
2023-06-23T16:39:05.117Z,25.38
2023-06-23T16:41:33.757Z,27.00
2023-06-23T16:44:01.225Z,31.60
2023-06-23T16:46:28.505Z,29.23
2023-06-23T16:48:56.688Z,35.60
2023-06-23T16:51:32.605Z,24.33
2023-06-23T16:54:07.995Z,30.08
2023-06-23T16:56:35.098Z,28.92
2023-06-23T16:59:02.450Z,22.55
2023-06-23T17:01:30.425Z,33.90
2023-06-23T17:03:57.986Z,26.85
2023-06-23T17:06:25.453Z,31.00
2023-06-23T17:08:52.720Z,28.77
2023-06-23T17:11:20.069Z,31.90
2023-06-23T17:13:47.329Z,22.08
2023-06-23T17:16:14.616Z,21.55
2023-06-23T17:18:41.796Z,20.10
2023-06-23T17:21:09.107Z,22.85
2023-06-23T17:23:36.262Z,22.75
2023-06-23T17:26:03.486Z,25.35
2023-06-23T17:28:30.962Z,26.77
2023-06-23T17:30:58.309Z,20.15
2023-06-23T17:33:25.610Z,26.33
2023-06-23T17:35:52.995Z,29.02
2023-06-23T17:38:20.233Z,21.40
2023-06-23T17:40:47.412Z,35.88
2023-06-23T17:43:15.789Z,27.95
2023-06-23T17:45:44.602Z,25.50
2023-06-23T17:48:12.419Z,29.23
2023-06-23T17:50:39.769Z,23.42
2023-06-23T17:53:06.999Z,29.40
2023-06-23T17:55:34.866Z,31.90
2023-06-23T17:58:02.282Z,27.77
2023-06-23T18:00:32.137Z,29.40
2023-06-23T18:03:01.274Z,16.83
2023-06-23T18:05:28.707Z,27.52
2023-06-23T18:07:57.173Z,24.92
2023-06-23T18:10:25.237Z,34.17
2023-06-23T18:12:52.861Z,28.27
2023-06-23T18:15:20.081Z,19.17
2023-06-23T18:17:47.518Z,28.25
2023-06-23T18:20:15.582Z,24.20
2023-06-23T18:22:43.082Z,25.50
2023-06-23T18:25:12.184Z,27.67
2023-06-23T18:27:43.420Z,32.45
2023-06-23T18:30:11.601Z,24.50
2023-06-23T18:32:39.625Z,34.13
2023-06-23T18:35:08.431Z,31.92
2023-06-23T18:37:36.005Z,28.10
2023-06-23T18:40:03.447Z,32.20
2023-06-23T18:42:31.344Z,30.85
2023-06-23T18:44:58.648Z,20.25
2023-06-23T18:47:28.107Z,31.13
2023-06-23T18:49:55.577Z,24.17
2023-06-23T18:52:23.903Z,24.10
2023-06-23T18:54:52.694Z,24.65
2023-06-23T18:57:26.997Z,27.58
2023-06-23T18:59:58.961Z,25.13
2023-06-23T19:02:29.940Z,23.55
2023-06-23T19:05:02.122Z,23.33
2023-06-23T19:07:33.057Z,26.42
2023-06-23T19:10:04.906Z,26.00
2023-06-23T19:12:40.321Z,22.35
2023-06-23T19:15:12.062Z,12.45
2023-06-23T19:17:44.203Z,11.70
2023-06-23T19:20:16.062Z,14.50
2023-06-23T19:22:47.405Z,10.10
2023-06-23T19:25:18.660Z,9.32
2023-06-23T19:27:47.143Z,9.20
2023-06-23T19:30:17.922Z,16.92
2023-06-23T19:32:48.773Z,6.47
2023-06-23T19:35:16.238Z,6.82
2023-06-23T19:37:43.412Z,8.50
2023-06-23T19:40:13.711Z,7.72
2023-06-23T19:42:46.199Z,9.20
2023-06-23T19:45:13.816Z,12.10
2023-06-23T19:47:43.585Z,9.98
2023-06-23T19:50:14.292Z,7.60
2023-06-23T19:52:45.005Z,8.32
2023-06-23T19:55:14.341Z,10.20
2023-06-23T19:57:42.912Z,6.32
2023-06-23T20:00:10.571Z,8.13
2023-06-23T20:02:37.852Z,4.70
2023-06-23T20:05:05.327Z,6.90
2023-06-23T20:07:32.655Z,4.35
2023-06-23T20:09:59.885Z,8.45
2023-06-23T20:12:27.514Z,5.68
2023-06-23T20:14:54.786Z,6.50
2023-06-23T20:17:22.209Z,14.40
2023-06-23T20:19:52.072Z,8.18
2023-06-23T20:22:19.609Z,11.18
2023-06-23T20:24:46.798Z,8.48
2023-06-23T20:27:14.030Z,5.30
2023-06-23T20:29:41.203Z,6.25
2023-06-23T20:32:09.919Z,4.45
2023-06-23T20:34:37.117Z,3.67
2023-06-23T20:37:05.324Z,3.45
2023-06-23T20:39:32.771Z,7.18
2023-06-23T20:42:03.135Z,5.07
2023-06-23T20:44:30.497Z,11.82
2023-06-23T20:46:57.845Z,8.88
2023-06-23T20:49:27.213Z,11.85
2023-06-23T20:51:54.903Z,12.27
2023-06-23T20:54:22.204Z,10.32
2023-06-23T20:56:49.513Z,7.15
2023-06-23T20:59:17.953Z,11.45
2023-06-23T21:01:47.545Z,9.52
2023-06-23T21:04:16.735Z,13.45
2023-06-23T21:06:46.122Z,12.27
2023-06-23T21:09:17.878Z,7.22
2023-06-23T21:11:49.081Z,9.18
2023-06-23T21:14:20.227Z,13.25
2023-06-23T21:16:50.489Z,9.50
2023-06-23T21:19:22.319Z,9.43
2023-06-23T21:21:49.747Z,6.85
2023-06-23T21:24:19.990Z,12.55
2023-06-23T21:26:52.461Z,10.32
2023-06-23T21:29:23.440Z,11.95
2023-06-23T21:31:52.143Z,9.90
2023-06-23T21:34:20.143Z,8.13
2023-06-23T21:36:48.994Z,7.07
2023-06-23T21:39:19.191Z,9.18
2023-06-23T21:41:49.647Z,11.82
2023-06-23T21:44:19.301Z,8.85
2023-06-23T21:46:49.602Z,8.32
2023-06-23T21:49:19.805Z,7.55
2023-06-23T21:51:53.061Z,8.63
2023-06-23T21:54:28.456Z,8.45
2023-06-23T21:56:59.056Z,6.20
2023-06-23T21:59:30.042Z,8.40
2023-06-23T22:01:57.350Z,11.32
2023-06-23T22:04:24.634Z,7.68
2023-06-23T22:06:51.826Z,9.02
2023-06-23T22:09:19.085Z,7.65
2023-06-23T22:11:46.387Z,10.65
2023-06-23T22:14:17.161Z,7.68
2023-06-23T22:16:45.334Z,7.95
2023-06-23T22:19:13.565Z,7.85
2023-06-23T22:21:42.036Z,19.33
2023-06-23T22:24:09.317Z,14.18
2023-06-23T22:26:36.467Z,4.00
2023-06-23T22:29:03.736Z,7.20
2023-06-23T22:31:31.906Z,6.90
2023-06-23T22:33:59.628Z,6.65
2023-06-23T22:36:34.577Z,6.32
2023-06-23T22:39:04.842Z,10.40
2023-06-23T22:41:32.392Z,7.35
2023-06-23T22:43:59.669Z,7.07
2023-06-23T22:46:27.229Z,7.20
2023-06-23T22:48:57.566Z,7.15
2023-06-23T22:51:25.484Z,5.53
2023-06-23T22:53:52.756Z,8.80
2023-06-23T22:56:21.438Z,5.78
2023-06-23T22:58:49.845Z,3.63
2023-06-23T23:01:17.662Z,9.82
2023-06-23T23:03:44.955Z,5.68
2023-06-23T23:06:12.412Z,4.82
2023-06-23T23:08:39.591Z,4.95
2023-06-23T23:11:06.876Z,3.00
2023-06-23T23:13:34.290Z,4.97
2023-06-23T23:16:01.436Z,5.63
2023-06-23T23:18:28.643Z,6.53
2023-06-23T23:20:55.835Z,4.32
2023-06-23T23:23:23.621Z,6.13
2023-06-23T23:25:50.874Z,5.22
2023-06-23T23:28:18.000Z,4.70
2023-06-23T23:30:45.144Z,5.85
2023-06-23T23:33:12.554Z,3.97
2023-06-23T23:35:40.473Z,4.03
2023-06-23T23:38:08.680Z,6.32
2023-06-23T23:40:36.165Z,7.13
2023-06-23T23:43:04.102Z,6.30
2023-06-23T23:45:31.300Z,7.30
2023-06-23T23:47:58.473Z,5.22
2023-06-23T23:50:25.600Z,3.78
2023-06-23T23:52:52.832Z,5.00
2023-06-23T23:55:19.997Z,6.78
2023-06-23T23:57:47.329Z,4.13
